This is the latest recevied weather packets stored in our database for station/object eb1ayw-13. If no packets are shown the sender has not sent any weather packets the latest 10 day(s).
| Time | Temp. | Humidity | Pressure | Rain* | Wind** | Luminosity | Snow |
|---|---|---|---|---|---|---|---|
| 1777961868 | 41.11° C | 13% | 1003.3 hPa | - | - | - | - |
| 1777961268 | 48.89° C | 9% | 1001.5 hPa | - | - | - | - |
| 1777960669 | 44.44° C | 11% | 1002.5 hPa | - | - | - | - |
| 1777960068 | 39.44° C | 13% | 1003.7 hPa | - | - | - | - |
| 1777959469 | 33.33° C | 18% | 1005.3 hPa | - | - | - | - |
| 1777958868 | 35° C | 16% | 1004.8 hPa | - | - | - | - |
| 1777958270 | 36.11° C | 16% | 1004.5 hPa | - | - | - | - |
| 1777957668 | 35.56° C | 16% | 1004.7 hPa | - | - | - | - |
| 1777957068 | 37.78° C | 15% | 1004.2 hPa | - | - | - | - |
| 1777956468 | 36.67° C | 15% | 1004.3 hPa | - | - | - | - |
| 1777955868 | 35° C | 17% | 1004.9 hPa | - | - | - | - |
| 1777955268 | 36.11° C | 16% | 1004.5 hPa | - | - | - | - |
| 1777954669 | 37.22° C | 15% | 1004.3 hPa | - | - | - | - |
| 1777954068 | 35.56° C | 16% | 1005 hPa | - | - | - | - |
| 1777953468 | 37.78° C | 15% | 1004.5 hPa | - | - | - | - |
| 1777952869 | 37.22° C | 15% | 1004.5 hPa | - | - | - | - |
| 1777952268 | 36.67° C | 16% | 1004.7 hPa | - | - | - | - |
| 1777951668 | 37.22° C | 15% | 1004.6 hPa | - | - | - | - |
| 1777951069 | 35° C | 17% | 1005.1 hPa | - | - | - | - |
| 1777950468 | 37.22° C | 15% | 1004.6 hPa | - | - | - | - |
| 1777949869 | 34.44° C | 18% | 1005.3 hPa | - | - | - | - |
| 1777949268 | 37.78° C | 15% | 1004.5 hPa | - | - | - | - |
| 1777948668 | 35.56° C | 17% | 1005 hPa | - | - | - | - |
| 1777948068 | 37.22° C | 16% | 1004.6 hPa | - | - | - | - |
| 1777947468 | 34.44° C | 18% | 1005.3 hPa | - | - | - | - |
* Rain since midnight (hover to see other rain measurements)
** Current wind speed in m/s (hover to see current wind gust speed)